Location Isle ofWight, ISLE OF WIGHT, UK

ob UISISLE1 240215Z AUTO 09001G04KT CLR 07/07 A3014 RMK SLPNO 

2020.02.24 0215 UTC
Wind from the E (089 degrees) at 1.2 MPH (1 KT) gusting to 4.6 MPH (4 KT)
Visibility    Mile(s)
Sky Conditions  clear
Temperature 45.4 F (7 C)
Dew Point 43.8 F (7 C)
Relative Humidity 94%
Pressure   30.141 in. Hg (1021 hPa)
Rain  0.00 in.
Daily Rain 0.008 in.

Station Name  Isle of Wight Weather
Longitude, Latitude  -1.27, 50.72
Elevation 45
Station URL http://www.isleofwightweather.co.uk
Software Type WeatherDisplay:10.37S